Time;durP1;ratioP1;P1;durP2;ratioP2;P2;SDS_P1;SDS_P2;PMS_P1;PMS_P2;Temp;Humidity;BMP_temperature;BMP_pressure;BME280_temperature;BME280_humidity;BME280_pressure;Samples;Min_cycle;Max_cycle;Signal;HPM_P1;HPM_P2
2024/01/26 00:02:16;;;;;;;7.00;5.93;;;;;;;;;;4963152;28;42724;-68
2024/01/26 00:04:45;;;;;;;7.75;6.03;;;;;;;;;;4963807;28;40697;-69
2024/01/26 00:07:14;;;;;;;7.72;5.93;;;;;;;;;;4966874;28;42724;-70
2024/01/26 00:09:42;;;;;;;14.90;6.07;;;;;;;;;;4964324;28;41678;-69
2024/01/26 00:12:10;;;;;;;7.20;4.80;;;;;;;;;;4965024;28;42368;-66
2024/01/26 00:14:38;;;;;;;7.88;5.45;;;;;;;;;;4962657;28;41595;-66
2024/01/26 00:17:06;;;;;;;6.47;5.78;;;;;;;;;;4966087;28;43098;-66
2024/01/26 00:19:34;;;;;;;6.55;5.53;;;;;;;;;;4960296;28;41051;-66
2024/01/26 00:22:03;;;;;;;8.38;4.95;;;;;;;;;;4966929;28;41760;-66
2024/01/26 00:24:31;;;;;;;6.88;5.28;;;;;;;;;;4963488;28;34286;-66
2024/01/26 00:26:59;;;;;;;5.78;5.07;;;;;;;;;;4967198;28;41813;-66
2024/01/26 00:29:27;;;;;;;6.22;4.80;;;;;;;;;;4962911;28;42908;-66
2024/01/26 00:31:55;;;;;;;6.10;5.10;;;;;;;;;;4969695;28;40837;-66
2024/01/26 00:34:23;;;;;;;5.50;4.82;;;;;;;;;;4959498;28;41088;-66
2024/01/26 00:36:51;;;;;;;6.75;4.97;;;;;;;;;;4968685;28;42648;-66
2024/01/26 00:39:20;;;;;;;6.18;4.47;;;;;;;;;;4966917;28;42313;-66
2024/01/26 00:41:48;;;;;;;5.78;5.18;;;;;;;;;;4949696;28;40129;-66
2024/01/26 00:44:16;;;;;;;5.15;4.65;;;;;;;;;;4969136;28;42244;-66
2024/01/26 00:46:44;;;;;;;5.80;5.20;;;;;;;;;;4965884;28;41040;-66
2024/01/26 00:49:12;;;;;;;5.03;4.53;;;;;;;;;;4962500;28;43065;-66
2024/01/26 00:51:40;;;;;;;5.55;4.93;;;;;;;;;;4965714;28;41220;-66
2024/01/26 00:54:08;;;;;;;5.97;4.45;;;;;;;;;;4964025;28;41671;-66
2024/01/26 00:56:37;;;;;;;5.70;5.10;;;;;;;;;;4964857;28;42059;-66
2024/01/26 00:59:05;;;;;;;5.80;4.93;;;;;;;;;;4965549;28;41779;-66
2024/01/26 01:01:33;;;;;;;6.05;4.97;;;;;;;;;;4964634;28;41636;-66
2024/01/26 01:04:01;;;;;;;5.85;5.28;;;;;;;;;;4962307;28;42045;-66
2024/01/26 01:06:29;;;;;;;5.43;4.70;;;;;;;;;;4966125;28;41296;-66
2024/01/26 01:08:57;;;;;;;6.18;5.22;;;;;;;;;;4965078;28;42133;-66
2024/01/26 01:11:25;;;;;;;6.25;4.68;;;;;;;;;;4963859;28;41366;-66
2024/01/26 01:13:55;;;;;;;5.03;4.57;;;;;;;;;;4965620;28;42597;-66
2024/01/26 01:16:23;;;;;;;6.20;5.57;;;;;;;;;;4966174;28;42157;-66
2024/01/26 01:18:51;;;;;;;9.82;4.57;;;;;;;;;;4966464;28;42054;-66
2024/01/26 01:21:19;;;;;;;5.32;4.32;;;;;;;;;;4968558;28;42341;-67
2024/01/26 01:23:47;;;;;;;8.27;4.45;;;;;;;;;;4953097;28;42116;-66
2024/01/26 01:26:16;;;;;;;8.73;4.60;;;;;;;;;;4943793;28;41322;-66
2024/01/26 01:28:44;;;;;;;4.97;4.47;;;;;;;;;;4946266;28;41715;-66
2024/01/26 01:31:13;;;;;;;6.13;5.53;;;;;;;;;;4935616;28;41346;-66
2024/01/26 01:33:41;;;;;;;5.60;4.47;;;;;;;;;;4944497;28;42045;-66
2024/01/26 01:36:09;;;;;;;5.25;4.18;;;;;;;;;;4946261;28;41575;-66
2024/01/26 01:38:37;;;;;;;5.70;4.57;;;;;;;;;;4947336;28;40743;-66
2024/01/26 01:41:05;;;;;;;4.97;4.53;;;;;;;;;;4946395;28;42309;-66
2024/01/26 01:43:33;;;;;;;5.78;4.57;;;;;;;;;;4948506;28;42455;-66
2024/01/26 01:46:01;;;;;;;5.03;4.53;;;;;;;;;;4948848;28;42319;-66
2024/01/26 01:48:30;;;;;;;5.03;4.10;;;;;;;;;;4942248;28;42887;-66
2024/01/26 01:50:58;;;;;;;5.03;3.95;;;;;;;;;;4942364;28;42046;-66
2024/01/26 01:53:26;;;;;;;5.88;4.93;;;;;;;;;;4943349;28;41486;-66
2024/01/26 01:55:54;;;;;;;5.28;4.78;;;;;;;;;;4937801;28;43141;-66
2024/01/26 01:58:23;;;;;;;6.90;5.13;;;;;;;;;;4945387;28;41111;-66
2024/01/26 02:00:51;;;;;;;7.32;5.20;;;;;;;;;;4935894;28;41241;-66
2024/01/26 02:03:21;;;;;;;5.82;4.00;;;;;;;;;;4945810;28;41974;-66
2024/01/26 02:05:50;;;;;;;4.20;3.80;;;;;;;;;;4947974;28;42277;-66
2024/01/26 02:08:18;;;;;;;6.45;5.07;;;;;;;;;;4940635;28;41292;-66
2024/01/26 02:10:46;;;;;;;4.75;4.28;;;;;;;;;;4948558;28;43086;-66
2024/01/26 02:13:14;;;;;;;6.05;4.53;;;;;;;;;;4944065;28;41965;-66
2024/01/26 02:15:42;;;;;;;6.05;4.95;;;;;;;;;;4938882;28;42754;-66
2024/01/26 02:18:10;;;;;;;5.32;4.75;;;;;;;;;;4945122;28;40831;-66
2024/01/26 02:20:38;;;;;;;6.00;5.07;;;;;;;;;;4943529;28;41462;-66
2024/01/26 02:23:23;;;;;;;5.25;4.00;;;;;;;;;;4954394;28;42814;-66
2024/01/26 02:25:51;;;;;;;4.55;4.00;;;;;;;;;;4963631;28;42219;-66
2024/01/26 02:28:19;;;;;;;5.93;4.60;;;;;;;;;;4967900;28;42222;-66
2024/01/26 02:30:47;;;;;;;5.78;4.32;;;;;;;;;;4955538;28;43547;-67
2024/01/26 02:33:15;;;;;;;4.45;4.00;;;;;;;;;;4962639;28;41328;-66
2024/01/26 02:35:44;;;;;;;4.72;4.20;;;;;;;;;;4964568;28;41596;-66
2024/01/26 02:38:12;;;;;;;7.95;6.32;;;;;;;;;;4964013;28;40602;-66
2024/01/26 02:40:41;;;;;;;4.45;4.05;;;;;;;;;;4965957;28;41805;-66
2024/01/26 02:43:09;;;;;;;4.95;4.30;;;;;;;;;;4966366;28;42174;-66
2024/01/26 02:45:37;;;;;;;4.68;4.28;;;;;;;;;;4964575;28;42010;-66
2024/01/26 02:48:05;;;;;;;4.32;3.90;;;;;;;;;;4964016;28;41363;-66
2024/01/26 02:50:34;;;;;;;4.25;3.85;;;;;;;;;;4962447;28;41721;-66
2024/01/26 02:53:02;;;;;;;4.13;3.65;;;;;;;;;;4967002;28;41011;-66
2024/01/26 02:55:30;;;;;;;4.03;3.63;;;;;;;;;;4965732;28;41440;-66
2024/01/26 02:57:59;;;;;;;5.22;4.07;;;;;;;;;;4963197;28;41370;-66
2024/01/26 03:00:27;;;;;;;3.85;3.45;;;;;;;;;;4957411;28;41269;-66
2024/01/26 03:02:55;;;;;;;4.20;3.80;;;;;;;;;;4933767;28;41821;-66
2024/01/26 03:05:23;;;;;;;3.83;3.42;;;;;;;;;;4955646;28;42297;-66
2024/01/26 03:07:51;;;;;;;5.07;4.15;;;;;;;;;;4954355;28;41323;-67
2024/01/26 03:10:19;;;;;;;4.55;3.88;;;;;;;;;;4956549;28;42145;-66
2024/01/26 03:12:48;;;;;;;4.70;4.30;;;;;;;;;;4947553;28;41382;-66
2024/01/26 03:15:17;;;;;;;4.43;4.03;;;;;;;;;;4960385;28;42446;-66
2024/01/26 03:17:46;;;;;;;4.05;3.67;;;;;;;;;;4964188;28;42083;-66
2024/01/26 03:20:14;;;;;;;3.60;3.30;;;;;;;;;;4963914;28;42420;-66
2024/01/26 03:22:43;;;;;;;4.60;4.10;;;;;;;;;;4967199;28;42562;-66
2024/01/26 03:25:11;;;;;;;4.20;3.72;;;;;;;;;;4963994;28;41341;-66
2024/01/26 03:27:39;;;;;;;4.78;4.35;;;;;;;;;;4967854;28;42748;-66
2024/01/26 03:30:08;;;;;;;4.30;3.67;;;;;;;;;;4964063;28;41795;-66
2024/01/26 03:32:37;;;;;;;5.05;3.30;;;;;;;;;;4966693;28;40858;-66
2024/01/26 03:35:06;;;;;;;3.40;2.97;;;;;;;;;;4963714;28;41476;-66
2024/01/26 03:37:34;;;;;;;4.75;3.70;;;;;;;;;;4965256;28;42049;-66
2024/01/26 03:40:03;;;;;;;4.10;3.35;;;;;;;;;;4966893;28;41306;-66
2024/01/26 03:42:31;;;;;;;3.45;3.15;;;;;;;;;;4959552;28;41936;-66
2024/01/26 03:44:59;;;;;;;3.20;2.90;;;;;;;;;;4962554;28;42356;-66
2024/01/26 03:47:27;;;;;;;3.70;3.17;;;;;;;;;;4965815;28;41627;-66
2024/01/26 03:49:57;;;;;;;3.58;3.10;;;;;;;;;;4964001;28;41993;-66
2024/01/26 03:52:25;;;;;;;3.22;2.90;;;;;;;;;;4963724;28;41210;-66
2024/01/26 03:54:53;;;;;;;4.03;3.15;;;;;;;;;;4966571;28;41256;-66
2024/01/26 03:57:20;;;;;;;3.28;2.90;;;;;;;;;;4955978;28;43118;-66
2024/01/26 03:59:48;;;;;;;3.40;2.97;;;;;;;;;;4964289;28;42196;-66
2024/01/26 04:02:17;;;;;;;2.95;2.55;;;;;;;;;;4966858;28;41620;-66
2024/01/26 04:04:45;;;;;;;3.40;2.92;;;;;;;;;;4964884;28;42277;-66
2024/01/26 04:07:15;;;;;;;4.38;2.78;;;;;;;;;;4965831;28;41091;-66
2024/01/26 04:09:43;;;;;;;3.40;3.10;;;;;;;;;;4964508;28;42750;-66
2024/01/26 04:12:11;;;;;;;2.78;2.50;;;;;;;;;;4967045;28;42261;-66
2024/01/26 04:14:39;;;;;;;4.53;3.33;;;;;;;;;;4962179;28;41367;-66
2024/01/26 04:17:07;;;;;;;2.50;2.30;;;;;;;;;;4958543;28;41907;-66
2024/01/26 04:19:34;;;;;;;2.92;2.40;;;;;;;;;;4958813;28;41791;-66
2024/01/26 04:22:02;;;;;;;3.05;2.70;;;;;;;;;;4962852;28;41664;-66
2024/01/26 04:24:32;;;;;;;2.97;2.70;;;;;;;;;;4967178;28;41617;-66
2024/01/26 04:27:00;;;;;;;3.17;2.85;;;;;;;;;;4965771;28;41386;-66
2024/01/26 04:29:28;;;;;;;2.95;2.50;;;;;;;;;;4966119;28;41874;-66
2024/01/26 04:31:56;;;;;;;3.10;2.30;;;;;;;;;;4957799;28;40619;-66
2024/01/26 04:34:24;;;;;;;2.90;2.20;;;;;;;;;;4963420;28;41126;-66
2024/01/26 04:36:52;;;;;;;3.20;2.60;;;;;;;;;;4962445;28;41986;-66
2024/01/26 04:39:20;;;;;;;2.60;2.40;;;;;;;;;;4961987;28;40971;-66
2024/01/26 04:41:49;;;;;;;2.63;2.42;;;;;;;;;;4964285;28;41214;-66
2024/01/26 04:44:17;;;;;;;2.30;2.10;;;;;;;;;;4961590;28;41913;-66
2024/01/26 04:46:45;;;;;;;3.00;2.53;;;;;;;;;;4963477;28;42601;-67
2024/01/26 04:49:13;;;;;;;2.35;2.15;;;;;;;;;;4963654;28;43107;-66
2024/01/26 04:51:42;;;;;;;2.53;2.17;;;;;;;;;;4966767;28;40897;-66
2024/01/26 04:54:09;;;;;;;2.47;2.28;;;;;;;;;;4965887;28;42210;-66
2024/01/26 04:56:38;;;;;;;2.50;2.17;;;;;;;;;;4967510;28;42191;-66
2024/01/26 04:59:07;;;;;;;2.35;2.15;;;;;;;;;;4965109;28;40472;-66
2024/01/26 05:01:35;;;;;;;2.08;1.88;;;;;;;;;;4969065;28;41193;-66
2024/01/26 05:04:03;;;;;;;2.17;1.98;;;;;;;;;;4965060;28;42772;-66
2024/01/26 05:06:31;;;;;;;2.13;1.92;;;;;;;;;;4964112;28;41816;-66
2024/01/26 05:08:59;;;;;;;2.50;2.15;;;;;;;;;;4966575;28;42016;-66
2024/01/26 05:11:28;;;;;;;2.00;1.70;;;;;;;;;;4965466;28;40904;-66
2024/01/26 05:13:56;;;;;;;2.65;2.00;;;;;;;;;;4969535;28;41243;-66
2024/01/26 05:16:25;;;;;;;2.53;2.10;;;;;;;;;;4967323;28;40301;-66
2024/01/26 05:18:53;;;;;;;2.17;1.80;;;;;;;;;;4966681;28;41201;-66
2024/01/26 05:21:21;;;;;;;2.75;2.50;;;;;;;;;;4968856;28;42073;-66
2024/01/26 05:23:52;;;;;;;1.77;1.67;;;;;;;;;;4968646;28;42119;-66
2024/01/26 05:26:20;;;;;;;2.00;1.77;;;;;;;;;;4967932;28;41272;-66
2024/01/26 05:28:48;;;;;;;1.80;1.70;;;;;;;;;;4967664;28;42680;-67
2024/01/26 05:31:16;;;;;;;1.67;1.58;;;;;;;;;;4960040;28;41323;-66
2024/01/26 05:33:45;;;;;;;2.38;1.77;;;;;;;;;;4964710;28;41175;-66
2024/01/26 05:36:14;;;;;;;1.65;1.38;;;;;;;;;;4966561;28;42311;-66
2024/01/26 05:38:42;;;;;;;1.90;1.70;;;;;;;;;;4968311;28;41205;-66
2024/01/26 05:41:11;;;;;;;2.80;2.40;;;;;;;;;;4965048;28;41610;-66
2024/01/26 05:43:39;;;;;;;2.10;1.90;;;;;;;;;;4967816;28;41858;-66
2024/01/26 05:46:07;;;;;;;2.05;1.85;;;;;;;;;;4963806;28;41303;-66
2024/01/26 05:48:35;;;;;;;2.20;2.00;;;;;;;;;;4964929;28;42359;-66
2024/01/26 05:51:05;;;;;;;2.15;1.95;;;;;;;;;;4965176;28;41573;-66
2024/01/26 05:53:33;;;;;;;1.88;1.70;;;;;;;;;;4963373;28;41053;-66
2024/01/26 05:56:01;;;;;;;2.47;1.83;;;;;;;;;;4967411;28;42040;-66
2024/01/26 05:58:30;;;;;;;2.78;1.80;;;;;;;;;;4958866;28;40866;-66
2024/01/26 06:00:57;;;;;;;2.15;1.95;;;;;;;;;;4965866;28;40644;-66
2024/01/26 06:03:25;;;;;;;2.22;2.03;;;;;;;;;;4966228;28;42794;-66
2024/01/26 06:05:54;;;;;;;1.92;1.65;;;;;;;;;;4966981;28;41477;-66
2024/01/26 06:08:23;;;;;;;2.33;1.67;;;;;;;;;;4959794;28;41607;-66
2024/01/26 06:10:51;;;;;;;3.22;2.15;;;;;;;;;;4964031;28;42360;-66
2024/01/26 06:13:20;;;;;;;1.92;1.73;;;;;;;;;;4952864;28;41091;-66
2024/01/26 06:15:47;;;;;;;3.00;1.98;;;;;;;;;;4964015;28;42077;-66
2024/01/26 06:18:15;;;;;;;2.80;1.67;;;;;;;;;;4967831;28;41993;-66
2024/01/26 06:20:44;;;;;;;1.73;1.63;;;;;;;;;;4966863;28;42250;-66
2024/01/26 06:23:12;;;;;;;2.63;1.80;;;;;;;;;;4966791;28;42683;-66
2024/01/26 06:25:41;;;;;;;1.88;1.67;;;;;;;;;;4966882;28;41365;-66
2024/01/26 06:28:09;;;;;;;1.90;1.70;;;;;;;;;;4966988;28;39780;-66
2024/01/26 06:30:37;;;;;;;2.15;1.55;;;;;;;;;;4955487;28;41562;-66
2024/01/26 06:33:05;;;;;;;1.65;1.55;;;;;;;;;;4965751;28;41280;-66
2024/01/26 06:35:33;;;;;;;1.92;1.55;;;;;;;;;;4952025;28;41637;-66
2024/01/26 06:38:01;;;;;;;1.90;1.70;;;;;;;;;;4963889;28;41204;-66
2024/01/26 06:40:29;;;;;;;2.13;1.83;;;;;;;;;;4964543;28;41670;-66
2024/01/26 06:43:01;;;;;;;3.78;3.05;;;;;;;;;;4967431;28;42088;-66
2024/01/26 06:45:30;;;;;;;1.80;1.65;;;;;;;;;;4946747;28;39686;-66
2024/01/26 06:47:58;;;;;;;1.60;1.50;;;;;;;;;;4960562;28;42046;-66
2024/01/26 06:50:26;;;;;;;1.60;1.50;;;;;;;;;;4963412;28;42381;-66
2024/01/26 06:52:54;;;;;;;2.35;2.03;;;;;;;;;;4965864;28;41224;-66
2024/01/26 06:55:22;;;;;;;1.65;1.50;;;;;;;;;;4964442;28;42582;-66
2024/01/26 06:57:50;;;;;;;1.73;1.42;;;;;;;;;;4941804;28;40595;-66
2024/01/26 07:00:20;;;;;;;3.15;2.00;;;;;;;;;;4959682;28;41423;-66
2024/01/26 07:02:48;;;;;;;2.08;1.55;;;;;;;;;;4962606;28;41649;-66
2024/01/26 07:05:16;;;;;;;1.70;1.60;;;;;;;;;;4966321;28;41024;-66
2024/01/26 07:07:44;;;;;;;2.17;1.63;;;;;;;;;;4965209;28;42382;-67
2024/01/26 07:10:12;;;;;;;2.95;1.80;;;;;;;;;;4964982;28;44156;-66
2024/01/26 07:12:41;;;;;;;1.95;1.70;;;;;;;;;;4967734;28;40869;-66
2024/01/26 07:15:09;;;;;;;1.77;1.67;;;;;;;;;;4964679;28;41474;-66
2024/01/26 07:17:39;;;;;;;1.75;1.65;;;;;;;;;;4967156;28;43799;-66
2024/01/26 07:20:08;;;;;;;3.72;1.55;;;;;;;;;;4964584;28;41656;-66
2024/01/26 07:22:36;;;;;;;2.58;2.38;;;;;;;;;;4967124;28;41671;-66
2024/01/26 07:25:09;;;;;;;2.22;1.63;;;;;;;;;;4966072;28;42059;-66
2024/01/26 07:27:37;;;;;;;1.70;1.60;;;;;;;;;;4961217;28;41328;-66
2024/01/26 07:30:08;;;;;;;2.00;1.65;;;;;;;;;;4960650;28;41760;-66
2024/01/26 07:32:36;;;;;;;4.65;1.73;;;;;;;;;;4964289;28;42341;-66
2024/01/26 07:35:06;;;;;;;2.33;1.80;;;;;;;;;;4963849;28;42101;-66
2024/01/26 07:37:34;;;;;;;2.72;1.73;;;;;;;;;;4967349;28;40401;-66
2024/01/26 07:40:04;;;;;;;3.17;1.83;;;;;;;;;;4965005;28;41894;-66
2024/01/26 07:42:32;;;;;;;1.58;1.42;;;;;;;;;;4967646;28;44798;-66
2024/01/26 07:45:00;;;;;;;2.70;1.60;;;;;;;;;;4966226;28;41977;-66
2024/01/26 07:47:28;;;;;;;1.92;1.52;;;;;;;;;;4964553;28;42710;-66
2024/01/26 07:49:56;;;;;;;2.97;1.48;;;;;;;;;;4963914;28;40570;-66
2024/01/26 07:52:26;;;;;;;3.13;2.20;;;;;;;;;;4963262;28;41155;-67
2024/01/26 07:54:54;;;;;;;3.88;3.03;;;;;;;;;;4961438;28;41823;-67
2024/01/26 07:57:24;;;;;;;2.33;2.13;;;;;;;;;;4962884;28;42036;-68
2024/01/26 07:59:52;;;;;;;3.25;2.78;;;;;;;;;;4963336;28;40648;-67
2024/01/26 08:02:20;;;;;;;2.55;2.35;;;;;;;;;;4962301;28;41534;-67
2024/01/26 08:04:49;;;;;;;3.97;2.53;;;;;;;;;;4964502;28;40944;-67
2024/01/26 08:07:18;;;;;;;2.03;1.83;;;;;;;;;;4963758;28;41864;-67
2024/01/26 08:09:47;;;;;;;2.97;2.67;;;;;;;;;;4956438;28;42223;-66
2024/01/26 08:12:15;;;;;;;3.75;2.47;;;;;;;;;;4962970;28;40825;-67
2024/01/26 08:15:03;;;;;;;3.88;2.65;;;;;;;;;;4957467;28;41415;-67
2024/01/26 08:17:32;;;;;;;3.22;2.50;;;;;;;;;;4966376;28;42698;-67
2024/01/26 08:20:02;;;;;;;5.18;1.70;;;;;;;;;;4960159;28;40877;-67
2024/01/26 08:22:32;;;;;;;4.20;2.63;;;;;;;;;;4935543;28;40457;-67
2024/01/26 08:25:02;;;;;;;5.15;2.35;;;;;;;;;;4968374;28;42786;-66
2024/01/26 08:27:30;;;;;;;3.17;2.60;;;;;;;;;;4967595;28;42306;-67
2024/01/26 08:29:58;;;;;;;2.63;2.35;;;;;;;;;;4966106;28;42287;-69
2024/01/26 08:32:26;;;;;;;4.72;2.22;;;;;;;;;;4965781;28;41876;-69
2024/01/26 08:34:55;;;;;;;3.72;2.78;;;;;;;;;;4969445;28;42823;-67
2024/01/26 08:37:24;;;;;;;4.80;2.05;;;;;;;;;;4966894;28;42609;-67
2024/01/26 08:39:52;;;;;;;3.30;2.70;;;;;;;;;;4965233;28;41071;-67
2024/01/26 08:42:21;;;;;;;3.13;2.08;;;;;;;;;;4963957;28;41562;-69
2024/01/26 08:44:49;;;;;;;3.13;2.63;;;;;;;;;;4963205;28;41561;-72
2024/01/26 08:47:17;;;;;;;2.35;2.15;;;;;;;;;;4964123;28;41604;-73
2024/01/26 08:49:45;;;;;;;3.47;1.45;;;;;;;;;;4959205;28;41805;-73
2024/01/26 08:52:13;;;;;;;5.30;2.40;;;;;;;;;;4965639;28;41990;-72
2024/01/26 08:54:41;;;;;;;9.60;1.70;;;;;;;;;;4968556;28;41132;-71
2024/01/26 08:57:09;;;;;;;3.03;2.80;;;;;;;;;;4969303;28;41540;-69
2024/01/26 08:59:40;;;;;;;3.78;2.80;;;;;;;;;;4966469;28;41943;-67
2024/01/26 09:02:08;;;;;;;5.10;2.80;;;;;;;;;;4962702;28;41993;-67
2024/01/26 09:04:36;;;;;;;7.18;3.40;;;;;;;;;;4970177;28;43843;-66
2024/01/26 09:07:04;;;;;;;5.10;3.47;;;;;;;;;;4968766;28;41877;-69
2024/01/26 09:09:38;;;;;;;3.10;2.78;;;;;;;;;;4970796;28;43274;-71
2024/01/26 09:12:06;;;;;;;5.57;2.78;;;;;;;;;;4966759;28;41237;-70
2024/01/26 09:14:35;;;;;;;4.05;3.03;;;;;;;;;;4966147;28;42374;-71
2024/01/26 09:17:04;;;;;;;5.03;3.42;;;;;;;;;;4963754;28;42119;-71
2024/01/26 09:19:32;;;;;;;3.75;3.10;;;;;;;;;;4966008;28;42432;-71
2024/01/26 09:22:00;;;;;;;6.28;3.35;;;;;;;;;;4956259;28;42920;-70
2024/01/26 09:24:28;;;;;;;4.70;3.15;;;;;;;;;;4966033;28;41877;-69
2024/01/26 09:26:57;;;;;;;7.03;2.85;;;;;;;;;;4967504;28;41851;-70
2024/01/26 09:29:26;;;;;;;6.55;3.15;;;;;;;;;;4968766;28;41572;-70
2024/01/26 09:31:56;;;;;;;4.60;2.80;;;;;;;;;;4966135;28;40729;-70
2024/01/26 09:34:26;;;;;;;4.40;2.58;;;;;;;;;;4963843;28;41544;-70
2024/01/26 09:36:54;;;;;;;3.78;3.38;;;;;;;;;;4967888;28;41798;-69
2024/01/26 09:39:24;;;;;;;2.85;2.17;;;;;;;;;;4960894;28;41975;-69
2024/01/26 09:41:52;;;;;;;3.47;1.90;;;;;;;;;;4964458;28;40927;-68
2024/01/26 09:44:21;;;;;;;4.65;2.30;;;;;;;;;;4964423;28;41481;-69
2024/01/26 09:46:49;;;;;;;8.48;1.73;;;;;;;;;;4960869;28;40828;-69
2024/01/26 09:49:17;;;;;;;3.28;1.70;;;;;;;;;;4965007;28;41389;-71
2024/01/26 09:51:47;;;;;;;4.50;1.30;;;;;;;;;;4966643;28;43091;-71
2024/01/26 09:54:15;;;;;;;7.05;1.63;;;;;;;;;;4965550;28;41576;-72
2024/01/26 09:56:42;;;;;;;4.13;1.33;;;;;;;;;;4965954;28;42827;-72
2024/01/26 09:59:11;;;;;;;3.28;0.80;;;;;;;;;;4967252;28;42047;-73
2024/01/26 10:01:41;;;;;;;3.38;0.65;;;;;;;;;;4965296;28;42678;-72
2024/01/26 10:04:09;;;;;;;0.93;0.60;;;;;;;;;;4965012;28;41833;-72
2024/01/26 10:06:37;;;;;;;3.63;0.60;;;;;;;;;;4965899;28;42225;-72
2024/01/26 10:09:09;;;;;;;1.10;0.65;;;;;;;;;;4963977;28;41081;-71
2024/01/26 10:11:38;;;;;;;3.92;0.80;;;;;;;;;;4965713;28;43210;-72
2024/01/26 10:14:06;;;;;;;2.60;0.70;;;;;;;;;;4957696;28;42184;-73
2024/01/26 10:16:34;;;;;;;1.88;0.63;;;;;;;;;;4957988;28;41999;-72
2024/01/26 10:19:02;;;;;;;1.90;0.60;;;;;;;;;;4965258;28;41567;-71
2024/01/26 10:21:30;;;;;;;3.38;0.77;;;;;;;;;;4962719;28;41697;-71
2024/01/26 10:23:58;;;;;;;2.58;0.75;;;;;;;;;;4964821;28;43094;-72
2024/01/26 10:26:29;;;;;;;4.78;0.90;;;;;;;;;;4964574;28;40920;-72
2024/01/26 10:28:57;;;;;;;2.85;0.70;;;;;;;;;;4963705;28;41226;-72
2024/01/26 10:31:26;;;;;;;4.15;0.80;;;;;;;;;;4965635;28;42821;-71
2024/01/26 10:33:55;;;;;;;4.63;0.88;;;;;;;;;;4963695;28;42223;-73
2024/01/26 10:36:23;;;;;;;3.17;0.80;;;;;;;;;;4965561;28;41607;-71
2024/01/26 10:38:51;;;;;;;3.15;0.75;;;;;;;;;;4963219;28;42359;-72
2024/01/26 10:41:22;;;;;;;2.28;0.77;;;;;;;;;;4964441;28;41655;-72
2024/01/26 10:43:53;;;;;;;2.45;0.95;;;;;;;;;;4965128;28;41953;-72
2024/01/26 10:46:22;;;;;;;7.22;1.25;;;;;;;;;;4963119;28;41450;-72
2024/01/26 10:48:50;;;;;;;4.30;1.08;;;;;;;;;;4964727;28;42087;-73
2024/01/26 10:51:19;;;;;;;2.35;0.98;;;;;;;;;;4964304;28;41792;-72
2024/01/26 10:53:47;;;;;;;3.97;1.15;;;;;;;;;;4964797;28;40997;-71
2024/01/26 10:56:15;;;;;;;4.55;1.23;;;;;;;;;;4965828;28;41589;-72
2024/01/26 10:58:43;;;;;;;2.75;0.90;;;;;;;;;;4965177;28;32747;-71
2024/01/26 11:01:13;;;;;;;4.85;1.23;;;;;;;;;;4963928;28;41766;-71
2024/01/26 11:03:41;;;;;;;3.95;1.27;;;;;;;;;;4963633;28;42695;-71
2024/01/26 11:06:09;;;;;;;3.70;1.20;;;;;;;;;;4963435;28;42328;-72
2024/01/26 11:08:37;;;;;;;3.90;0.80;;;;;;;;;;4965294;28;41586;-72
2024/01/26 11:11:06;;;;;;;3.97;1.20;;;;;;;;;;4964305;28;42835;-72
2024/01/26 11:13:36;;;;;;;3.45;1.00;;;;;;;;;;4965046;28;41362;-71
2024/01/26 11:16:05;;;;;;;4.20;1.20;;;;;;;;;;4964357;28;41499;-72
2024/01/26 11:18:35;;;;;;;2.72;0.85;;;;;;;;;;4968422;28;41588;-72
2024/01/26 11:21:04;;;;;;;3.65;1.17;;;;;;;;;;4967666;28;42691;-71
2024/01/26 11:23:35;;;;;;;5.55;1.25;;;;;;;;;;4966828;28;42902;-72
2024/01/26 11:26:03;;;;;;;5.80;1.65;;;;;;;;;;4966736;28;41050;-71
2024/01/26 11:28:31;;;;;;;6.50;1.80;;;;;;;;;;4964817;28;41568;-72
2024/01/26 11:31:00;;;;;;;6.35;1.60;;;;;;;;;;4966860;28;43033;-72
2024/01/26 11:33:34;;;;;;;8.07;1.33;;;;;;;;;;4949925;28;40124;-72
2024/01/26 11:36:04;;;;;;;5.88;1.23;;;;;;;;;;4966759;28;43164;-70
2024/01/26 11:38:32;;;;;;;5.07;1.50;;;;;;;;;;4964166;28;42252;-72
2024/01/26 11:41:01;;;;;;;4.28;0.95;;;;;;;;;;4967344;28;42259;-71
2024/01/26 11:43:29;;;;;;;3.35;0.98;;;;;;;;;;4965234;28;42925;-71
2024/01/26 11:45:57;;;;;;;4.30;1.25;;;;;;;;;;4977245;28;40716;-72
2024/01/26 11:48:25;;;;;;;4.55;1.13;;;;;;;;;;4952442;28;41640;-72
2024/01/26 11:50:55;;;;;;;4.20;0.95;;;;;;;;;;4965673;28;41685;-71
2024/01/26 11:53:25;;;;;;;5.40;1.80;;;;;;;;;;4966310;28;41857;-72
2024/01/26 11:55:57;;;;;;;5.07;1.20;;;;;;;;;;4966058;28;41674;-71
2024/01/26 11:58:26;;;;;;;6.95;1.52;;;;;;;;;;4964923;28;42599;-72
2024/01/26 12:00:54;;;;;;;5.55;1.33;;;;;;;;;;4963005;28;42088;-71
2024/01/26 12:03:22;;;;;;;5.93;1.55;;;;;;;;;;4970446;28;42145;-71
2024/01/26 12:05:53;;;;;;;4.60;1.48;;;;;;;;;;4970078;28;42311;-70
2024/01/26 12:08:23;;;;;;;6.80;1.55;;;;;;;;;;4967153;28;42337;-71
2024/01/26 12:10:52;;;;;;;6.30;1.75;;;;;;;;;;4966749;28;42098;-71
2024/01/26 12:13:21;;;;;;;10.10;1.60;;;;;;;;;;4969203;28;41786;-72
2024/01/26 12:15:48;;;;;;;6.45;1.58;;;;;;;;;;4965774;28;41436;-71
2024/01/26 12:18:17;;;;;;;8.65;1.83;;;;;;;;;;4967891;28;42219;-73
2024/01/26 12:20:47;;;;;;;5.25;1.70;;;;;;;;;;4965266;28;41287;-73
2024/01/26 12:23:16;;;;;;;4.82;1.75;;;;;;;;;;4968773;28;41869;-73
2024/01/26 12:25:44;;;;;;;6.72;1.75;;;;;;;;;;4966003;28;42064;-72
2024/01/26 12:28:15;;;;;;;5.07;1.20;;;;;;;;;;4969225;28;40849;-71
2024/01/26 12:30:45;;;;;;;6.07;1.65;;;;;;;;;;4966653;28;42141;-72
2024/01/26 12:33:14;;;;;;;4.57;1.90;;;;;;;;;;4967535;28;42234;-73
2024/01/26 12:35:43;;;;;;;4.70;1.33;;;;;;;;;;4965902;28;42091;-74
2024/01/26 12:38:12;;;;;;;6.28;1.70;;;;;;;;;;4952278;28;40603;-74
2024/01/26 12:40:40;;;;;;;5.88;1.65;;;;;;;;;;4952675;28;41664;-70
2024/01/26 12:43:08;;;;;;;4.00;1.52;;;;;;;;;;4960558;28;41691;-72
2024/01/26 12:45:38;;;;;;;3.95;1.50;;;;;;;;;;4966615;28;42105;-71
2024/01/26 12:48:06;;;;;;;7.07;1.75;;;;;;;;;;4966352;28;42335;-73
2024/01/26 12:50:35;;;;;;;3.25;1.20;;;;;;;;;;4969491;28;43166;-73
2024/01/26 12:53:03;;;;;;;5.13;1.25;;;;;;;;;;4965923;28;41220;-73
2024/01/26 12:55:31;;;;;;;5.40;1.75;;;;;;;;;;4965783;28;41464;-73
2024/01/26 12:57:59;;;;;;;8.60;2.20;;;;;;;;;;4965861;28;42005;-73
2024/01/26 13:00:27;;;;;;;6.25;1.95;;;;;;;;;;4961638;28;42457;-73
2024/01/26 13:02:59;;;;;;;8.55;1.92;;;;;;;;;;4965337;28;41414;-73
2024/01/26 13:05:27;;;;;;;7.43;2.10;;;;;;;;;;4968989;28;41713;-74
2024/01/26 13:07:55;;;;;;;7.05;1.50;;;;;;;;;;4968197;28;41154;-73
2024/01/26 13:10:23;;;;;;;5.32;1.88;;;;;;;;;;4965096;28;42372;-74
2024/01/26 13:12:51;;;;;;;7.65;1.73;;;;;;;;;;4963724;28;41325;-73
2024/01/26 13:15:20;;;;;;;12.45;1.65;;;;;;;;;;4965091;28;41510;-73
2024/01/26 13:17:49;;;;;;;4.32;1.30;;;;;;;;;;4964870;28;41777;-71
2024/01/26 13:20:19;;;;;;;7.63;1.52;;;;;;;;;;4956371;28;40968;-71
2024/01/26 13:22:48;;;;;;;5.18;1.35;;;;;;;;;;4968325;28;41665;-72
2024/01/26 13:25:17;;;;;;;5.70;1.90;;;;;;;;;;4964905;28;42072;-71
2024/01/26 13:27:45;;;;;;;4.68;1.42;;;;;;;;;;4965578;28;41174;-71
2024/01/26 13:30:14;;;;;;;3.65;1.58;;;;;;;;;;4965599;28;42403;-71
2024/01/26 13:32:43;;;;;;;7.13;2.00;;;;;;;;;;4968032;28;41373;-72
2024/01/26 13:35:12;;;;;;;6.60;1.70;;;;;;;;;;4965304;28;41663;-74
2024/01/26 13:37:42;;;;;;;5.10;1.48;;;;;;;;;;4964573;28;42303;-73
2024/01/26 13:40:10;;;;;;;4.18;1.50;;;;;;;;;;4967327;28;41179;-74
2024/01/26 13:42:41;;;;;;;5.07;1.70;;;;;;;;;;4965446;28;41580;-73
2024/01/26 13:45:11;;;;;;;3.83;1.27;;;;;;;;;;4966833;28;41658;-71
2024/01/26 13:47:40;;;;;;;4.70;1.15;;;;;;;;;;4967717;28;41318;-71
2024/01/26 13:50:10;;;;;;;3.30;1.17;;;;;;;;;;4935933;28;40863;-71
2024/01/26 13:52:38;;;;;;;2.70;1.02;;;;;;;;;;4965907;28;42114;-71
2024/01/26 13:55:07;;;;;;;7.28;1.50;;;;;;;;;;4965214;28;41878;-72
2024/01/26 13:57:35;;;;;;;4.95;1.70;;;;;;;;;;4965164;28;43114;-71
2024/01/26 14:00:04;;;;;;;5.35;1.63;;;;;;;;;;4966852;28;41258;-71
2024/01/26 14:02:49;;;;;;;6.55;1.58;;;;;;;;;;4963613;28;41071;-71
2024/01/26 14:05:17;;;;;;;4.07;1.25;;;;;;;;;;4965762;28;42166;-71
2024/01/26 14:07:46;;;;;;;5.13;1.30;;;;;;;;;;4966595;28;42283;-71
2024/01/26 14:10:15;;;;;;;3.10;1.05;;;;;;;;;;4947963;28;41473;-71
2024/01/26 14:12:43;;;;;;;5.43;1.15;;;;;;;;;;4962931;28;41921;-73
2024/01/26 14:15:13;;;;;;;4.70;1.40;;;;;;;;;;4965348;28;40941;-72
2024/01/26 14:17:42;;;;;;;3.10;1.05;;;;;;;;;;4964171;28;42888;-73
2024/01/26 14:20:10;;;;;;;6.00;1.63;;;;;;;;;;4964703;28;41994;-73
2024/01/26 14:22:39;;;;;;;5.53;1.50;;;;;;;;;;4966044;28;41634;-73
2024/01/26 14:25:07;;;;;;;5.25;1.42;;;;;;;;;;4968074;28;42785;-73
2024/01/26 14:27:36;;;;;;;4.80;1.55;;;;;;;;;;4966966;28;40951;-73
2024/01/26 14:30:05;;;;;;;6.10;1.70;;;;;;;;;;4966650;28;41322;-73
2024/01/26 14:32:34;;;;;;;4.97;1.05;;;;;;;;;;4966461;28;41578;-73
2024/01/26 14:35:02;;;;;;;5.97;1.50;;;;;;;;;;4964803;28;40703;-73
2024/01/26 14:37:31;;;;;;;4.55;1.15;;;;;;;;;;4963237;28;41934;-73
2024/01/26 14:40:05;;;;;;;6.07;1.67;;;;;;;;;;4966877;28;41127;-71
2024/01/26 14:42:33;;;;;;;7.00;1.60;;;;;;;;;;4967209;28;41834;-72
2024/01/26 14:45:04;;;;;;;4.40;1.20;;;;;;;;;;4965409;28;41929;-70
2024/01/26 14:47:32;;;;;;;4.63;1.52;;;;;;;;;;4963216;28;41390;-70
2024/01/26 14:50:00;;;;;;;4.00;1.17;;;;;;;;;;4953661;28;41703;-70
2024/01/26 14:52:28;;;;;;;5.45;1.77;;;;;;;;;;4962450;28;42885;-70